Hawick, Minnesota
Current Conditions -  °F | °C
As of 10:54 AM on Friday 28 Nov 2014 (Local Time) from KPEX Reporting Station
Overcast Overcast  
Wind Chill:   Ceiling: 1400
Heat Index: 13°   Visibility: 10mi
Dew Point:   Wind: 9mph
Humidity: 82%   Direction: 60°ENE
Pressure: 29.91"   Gusts: NA
Location:  45.35°N, 94.83°W
Report Text: KPEX 281654Z AUTO 06008KT 10SM OVC014 M11/M13 A2991 RMK AO2 T11081134
Loading
Personal Weather Stations






























Interactive Weather Map New forecast layout! Learn more

10-Day Weather Forecast

Advertisements
Track Severe Weather on mobile